sensor_id;sensor_type;location;lat;lon;timestamp;pressure;altitude;pressure_sealevel;temperature;humidity
15670;BME280;18524;45.190;5.732;2024-03-02T00:03:55;98331.97;;;9.25;92.65
15670;BME280;18524;45.190;5.732;2024-03-02T00:08:45;98316.88;;;9.38;90.27
15670;BME280;18524;45.190;5.732;2024-03-02T00:13:36;98326.72;;;9.05;89.05
15670;BME280;18524;45.190;5.732;2024-03-02T00:18:30;98334.31;;;9.18;91.23
15670;BME280;18524;45.190;5.732;2024-03-02T00:23:21;98327.84;;;9.13;95.00
15670;BME280;18524;45.190;5.732;2024-03-02T00:28:23;98328.63;;;8.94;96.02
15670;BME280;18524;45.190;5.732;2024-03-02T00:33:14;98327.44;;;8.77;98.98
15670;BME280;18524;45.190;5.732;2024-03-02T00:38:05;98334.16;;;8.70;100.00
15670;BME280;18524;45.190;5.732;2024-03-02T00:42:59;98342.38;;;8.56;100.00
15670;BME280;18524;45.190;5.732;2024-03-02T00:47:49;98331.84;;;8.46;100.00
15670;BME280;18524;45.190;5.732;2024-03-02T00:52:40;98347.22;;;8.39;100.00
15670;BME280;18524;45.190;5.732;2024-03-02T00:57:33;98347.25;;;8.49;100.00
15670;BME280;18524;45.190;5.732;2024-03-02T01:02:24;98340.66;;;8.24;100.00
15670;BME280;18524;45.190;5.732;2024-03-02T01:07:14;98347.72;;;8.12;100.00
15670;BME280;18524;45.190;5.732;2024-03-02T01:12:05;98349.31;;;8.04;100.00
15670;BME280;18524;45.190;5.732;2024-03-02T01:16:55;98348.94;;;8.08;100.00
15670;BME280;18524;45.190;5.732;2024-03-02T01:21:46;98338.16;;;7.81;100.00
15670;BME280;18524;45.190;5.732;2024-03-02T01:26:36;98346.41;;;7.65;100.00
15670;BME280;18524;45.190;5.732;2024-03-02T01:31:26;98338.38;;;7.89;100.00
15670;BME280;18524;45.190;5.732;2024-03-02T01:36:17;98341.72;;;8.01;100.00
15670;BME280;18524;45.190;5.732;2024-03-02T01:41:07;98335.44;;;8.03;100.00
15670;BME280;18524;45.190;5.732;2024-03-02T01:45:58;98329.25;;;7.83;100.00
15670;BME280;18524;45.190;5.732;2024-03-02T01:50:48;98328.59;;;7.70;100.00
15670;BME280;18524;45.190;5.732;2024-03-02T01:55:39;98332.81;;;7.82;100.00
15670;BME280;18524;45.190;5.732;2024-03-02T02:00:29;98332.16;;;7.69;100.00
15670;BME280;18524;45.190;5.732;2024-03-02T02:05:20;98322.22;;;7.63;100.00
15670;BME280;18524;45.190;5.732;2024-03-02T02:10:11;98313.63;;;7.72;100.00
15670;BME280;18524;45.190;5.732;2024-03-02T02:15:01;98308.16;;;7.75;100.00
15670;BME280;18524;45.190;5.732;2024-03-02T02:19:52;98317.16;;;7.82;100.00
15670;BME280;18524;45.190;5.732;2024-03-02T02:24:42;98305.69;;;7.95;100.00
15670;BME280;18524;45.190;5.732;2024-03-02T02:29:34;98310.69;;;7.66;100.00
15670;BME280;18524;45.190;5.732;2024-03-02T02:34:24;98304.91;;;7.62;100.00
15670;BME280;18524;45.190;5.732;2024-03-02T02:39:17;98296.81;;;7.65;100.00
15670;BME280;18524;45.190;5.732;2024-03-02T02:44:07;98298.53;;;7.76;100.00
15670;BME280;18524;45.190;5.732;2024-03-02T02:48:58;98293.38;;;7.65;100.00
15670;BME280;18524;45.190;5.732;2024-03-02T02:53:48;98293.06;;;7.58;100.00
15670;BME280;18524;45.190;5.732;2024-03-02T02:58:40;98305.03;;;7.29;100.00
15670;BME280;18524;45.190;5.732;2024-03-02T03:03:31;98291.81;;;7.41;100.00
15670;BME280;18524;45.190;5.732;2024-03-02T03:08:21;98283.00;;;7.53;100.00
15670;BME280;18524;45.190;5.732;2024-03-02T03:13:13;98274.09;;;7.56;100.00
15670;BME280;18524;45.190;5.732;2024-03-02T03:18:04;98278.88;;;7.51;100.00
15670;BME280;18524;45.190;5.732;2024-03-02T03:22:55;98282.88;;;7.55;100.00
15670;BME280;18524;45.190;5.732;2024-03-02T03:27:45;98282.69;;;7.47;100.00
15670;BME280;18524;45.190;5.732;2024-03-02T03:32:36;98278.25;;;7.59;100.00
15670;BME280;18524;45.190;5.732;2024-03-02T03:37:26;98274.28;;;7.43;100.00
15670;BME280;18524;45.190;5.732;2024-03-02T03:42:22;98263.97;;;7.42;100.00
15670;BME280;18524;45.190;5.732;2024-03-02T03:47:13;98259.22;;;7.47;100.00
15670;BME280;18524;45.190;5.732;2024-03-02T03:52:03;98257.56;;;7.46;100.00
15670;BME280;18524;45.190;5.732;2024-03-02T03:56:54;98260.22;;;7.56;100.00
15670;BME280;18524;45.190;5.732;2024-03-02T04:01:44;98248.66;;;7.69;100.00
15670;BME280;18524;45.190;5.732;2024-03-02T04:06:35;98250.81;;;7.64;100.00
15670;BME280;18524;45.190;5.732;2024-03-02T04:11:25;98237.50;;;7.67;100.00
15670;BME280;18524;45.190;5.732;2024-03-02T04:16:15;98236.44;;;7.70;100.00
15670;BME280;18524;45.190;5.732;2024-03-02T04:21:06;98240.56;;;7.72;100.00
15670;BME280;18524;45.190;5.732;2024-03-02T04:25:56;98236.16;;;7.73;100.00
15670;BME280;18524;45.190;5.732;2024-03-02T04:30:46;98234.25;;;7.75;100.00
15670;BME280;18524;45.190;5.732;2024-03-02T04:35:37;98226.19;;;7.57;100.00
15670;BME280;18524;45.190;5.732;2024-03-02T04:40:27;98229.72;;;7.77;100.00
15670;BME280;18524;45.190;5.732;2024-03-02T04:45:18;98241.25;;;7.74;100.00
15670;BME280;18524;45.190;5.732;2024-03-02T04:50:09;98252.91;;;7.49;100.00
15670;BME280;18524;45.190;5.732;2024-03-02T04:55:00;98240.47;;;7.42;100.00
15670;BME280;18524;45.190;5.732;2024-03-02T05:00:07;98239.44;;;7.44;100.00
15670;BME280;18524;45.190;5.732;2024-03-02T05:04:58;98237.25;;;7.70;100.00
15670;BME280;18524;45.190;5.732;2024-03-02T05:09:49;98223.94;;;7.73;100.00
15670;BME280;18524;45.190;5.732;2024-03-02T05:14:39;98226.16;;;7.78;100.00
15670;BME280;18524;45.190;5.732;2024-03-02T05:19:30;98240.00;;;7.69;100.00
15670;BME280;18524;45.190;5.732;2024-03-02T05:24:20;98228.91;;;7.76;100.00
15670;BME280;18524;45.190;5.732;2024-03-02T05:29:10;98228.59;;;7.70;100.00
15670;BME280;18524;45.190;5.732;2024-03-02T05:34:01;98224.53;;;7.56;100.00
15670;BME280;18524;45.190;5.732;2024-03-02T05:38:51;98220.44;;;7.21;100.00
15670;BME280;18524;45.190;5.732;2024-03-02T05:43:41;98207.94;;;7.04;100.00
15670;BME280;18524;45.190;5.732;2024-03-02T05:48:32;98224.00;;;6.88;100.00
15670;BME280;18524;45.190;5.732;2024-03-02T05:53:22;98228.19;;;6.57;100.00
15670;BME280;18524;45.190;5.732;2024-03-02T05:58:13;98214.28;;;6.36;100.00
15670;BME280;18524;45.190;5.732;2024-03-02T06:03:17;98203.47;;;6.52;100.00
15670;BME280;18524;45.190;5.732;2024-03-02T06:08:08;98198.59;;;6.58;100.00
15670;BME280;18524;45.190;5.732;2024-03-02T06:12:58;98187.94;;;6.62;100.00
15670;BME280;18524;45.190;5.732;2024-03-02T06:17:49;98193.25;;;6.60;100.00
15670;BME280;18524;45.190;5.732;2024-03-02T06:22:39;98183.53;;;6.73;100.00
15670;BME280;18524;45.190;5.732;2024-03-02T06:27:30;98178.97;;;6.86;100.00
15670;BME280;18524;45.190;5.732;2024-03-02T06:32:20;98171.28;;;6.85;100.00
15670;BME280;18524;45.190;5.732;2024-03-02T06:37:10;98172.88;;;6.76;100.00
15670;BME280;18524;45.190;5.732;2024-03-02T06:42:01;98172.16;;;6.74;100.00
15670;BME280;18524;45.190;5.732;2024-03-02T06:46:51;98175.84;;;6.72;100.00
15670;BME280;18524;45.190;5.732;2024-03-02T06:51:41;98165.31;;;6.62;100.00
15670;BME280;18524;45.190;5.732;2024-03-02T06:56:32;98163.97;;;6.68;100.00
15670;BME280;18524;45.190;5.732;2024-03-02T07:01:23;98155.53;;;6.86;100.00
15670;BME280;18524;45.190;5.732;2024-03-02T07:06:15;98155.28;;;6.89;100.00
15670;BME280;18524;45.190;5.732;2024-03-02T07:11:05;98157.09;;;7.10;100.00
15670;BME280;18524;45.190;5.732;2024-03-02T07:15:56;98141.72;;;7.07;100.00
15670;BME280;18524;45.190;5.732;2024-03-02T07:20:52;98146.84;;;7.39;100.00
15670;BME280;18524;45.190;5.732;2024-03-02T07:25:42;98138.34;;;7.16;100.00
15670;BME280;18524;45.190;5.732;2024-03-02T07:30:33;98129.25;;;7.10;100.00
15670;BME280;18524;45.190;5.732;2024-03-02T07:35:24;98129.06;;;7.23;100.00
15670;BME280;18524;45.190;5.732;2024-03-02T07:40:17;98128.28;;;7.32;100.00
15670;BME280;18524;45.190;5.732;2024-03-02T07:45:08;98119.00;;;7.18;100.00
15670;BME280;18524;45.190;5.732;2024-03-02T07:49:58;98113.44;;;7.53;100.00
15670;BME280;18524;45.190;5.732;2024-03-02T07:54:48;98101.44;;;7.72;100.00
15670;BME280;18524;45.190;5.732;2024-03-02T07:59:39;98092.19;;;7.98;100.00
15670;BME280;18524;45.190;5.732;2024-03-02T08:04:29;98086.28;;;8.06;100.00
15670;BME280;18524;45.190;5.732;2024-03-02T08:09:19;98084.94;;;8.11;100.00
15670;BME280;18524;45.190;5.732;2024-03-02T08:14:10;98078.19;;;7.99;100.00
15670;BME280;18524;45.190;5.732;2024-03-02T08:19:00;98080.22;;;8.45;100.00
15670;BME280;18524;45.190;5.732;2024-03-02T08:23:51;98072.38;;;8.94;100.00
15670;BME280;18524;45.190;5.732;2024-03-02T08:28:43;98071.88;;;9.37;100.00
15670;BME280;18524;45.190;5.732;2024-03-02T08:33:33;98067.50;;;9.92;93.80
15670;BME280;18524;45.190;5.732;2024-03-02T08:38:24;98059.13;;;10.16;91.50
15670;BME280;18524;45.190;5.732;2024-03-02T08:43:14;98036.03;;;10.65;87.17
15670;BME280;18524;45.190;5.732;2024-03-02T08:48:08;98022.66;;;10.94;85.34
15670;BME280;18524;45.190;5.732;2024-03-02T08:52:58;98017.41;;;10.94;86.35
15670;BME280;18524;45.190;5.732;2024-03-02T08:57:49;98013.75;;;11.47;82.54
15670;BME280;18524;45.190;5.732;2024-03-02T09:02:40;98009.94;;;11.67;80.38
15670;BME280;18524;45.190;5.732;2024-03-02T09:07:31;98005.53;;;11.76;77.73
15670;BME280;18524;45.190;5.732;2024-03-02T09:12:21;97993.84;;;11.28;81.92
15670;BME280;18524;45.190;5.732;2024-03-02T09:17:11;97987.41;;;11.22;81.76
15670;BME280;18524;45.190;5.732;2024-03-02T09:22:02;97978.13;;;11.36;80.93
15670;BME280;18524;45.190;5.732;2024-03-02T09:26:55;97965.78;;;11.28;81.55
15670;BME280;18524;45.190;5.732;2024-03-02T09:31:46;97950.50;;;11.58;80.73
15670;BME280;18524;45.190;5.732;2024-03-02T09:36:36;97940.47;;;11.53;81.32
15670;BME280;18524;45.190;5.732;2024-03-02T09:41:27;97939.28;;;11.48;82.46
15670;BME280;18524;45.190;5.732;2024-03-02T09:46:18;97935.22;;;11.53;81.86
15670;BME280;18524;45.190;5.732;2024-03-02T09:51:10;97938.81;;;11.52;81.92
15670;BME280;18524;45.190;5.732;2024-03-02T09:56:00;97931.31;;;11.66;81.88
15670;BME280;18524;45.190;5.732;2024-03-02T10:00:51;97920.13;;;11.55;82.69
15670;BME280;18524;45.190;5.732;2024-03-02T10:05:42;97910.63;;;11.63;83.12
15670;BME280;18524;45.190;5.732;2024-03-02T10:10:37;97903.41;;;11.56;83.68
15670;BME280;18524;45.190;5.732;2024-03-02T10:15:30;97877.16;;;11.65;83.77
15670;BME280;18524;45.190;5.732;2024-03-02T10:20:27;97886.00;;;11.55;84.37
15670;BME280;18524;45.190;5.732;2024-03-02T10:25:32;97877.31;;;11.63;84.65
15670;BME280;18524;45.190;5.732;2024-03-02T10:30:23;97862.25;;;11.81;81.08
15670;BME280;18524;45.190;5.732;2024-03-02T10:35:13;97860.31;;;12.16;79.27
15670;BME280;18524;45.190;5.732;2024-03-02T10:40:05;97853.06;;;12.26;77.01
15670;BME280;18524;45.190;5.732;2024-03-02T10:44:55;97841.16;;;12.63;75.02
15670;BME280;18524;45.190;5.732;2024-03-02T10:49:46;97816.38;;;12.96;73.05
15670;BME280;18524;45.190;5.732;2024-03-02T10:54:38;97805.78;;;13.21;70.06
15670;BME280;18524;45.190;5.732;2024-03-02T10:59:33;97787.56;;;13.42;69.86
15670;BME280;18524;45.190;5.732;2024-03-02T11:04:29;97778.00;;;13.64;67.09
15670;BME280;18524;45.190;5.732;2024-03-02T11:09:24;97767.28;;;13.88;64.38
15670;BME280;18524;45.190;5.732;2024-03-02T11:14:17;97736.44;;;14.41;62.37
15670;BME280;18524;45.190;5.732;2024-03-02T11:19:13;97734.25;;;14.89;61.15
15670;BME280;18524;45.190;5.732;2024-03-02T11:34:30;97701.81;;;15.80;54.80
15670;BME280;18524;45.190;5.732;2024-03-02T11:39:20;97680.56;;;16.30;53.89
15670;BME280;18524;45.190;5.732;2024-03-02T11:44:11;97679.88;;;17.03;50.76
15670;BME280;18524;45.190;5.732;2024-03-02T11:49:02;97667.19;;;16.85;49.03
15670;BME280;18524;45.190;5.732;2024-03-02T11:53:54;97660.25;;;16.78;48.83
15670;BME280;18524;45.190;5.732;2024-03-02T11:58:46;97651.41;;;16.64;48.27
15670;BME280;18524;45.190;5.732;2024-03-02T12:03:37;97654.72;;;16.25;49.23
15670;BME280;18524;45.190;5.732;2024-03-02T12:08:28;97620.41;;;16.38;50.45
15670;BME280;18524;45.190;5.732;2024-03-02T12:13:18;97614.41;;;16.71;49.24
15670;BME280;18524;45.190;5.732;2024-03-02T12:18:08;97622.19;;;16.99;48.44
15670;BME280;18524;45.190;5.732;2024-03-02T12:23:01;97609.16;;;17.04;47.56
15670;BME280;18524;45.190;5.732;2024-03-02T12:27:54;97561.09;;;17.07;47.36
15670;BME280;18524;45.190;5.732;2024-03-02T12:32:45;97574.31;;;17.66;43.52
15670;BME280;18524;45.190;5.732;2024-03-02T12:37:42;97584.81;;;18.12;42.54
15670;BME280;18524;45.190;5.732;2024-03-02T12:42:33;97585.69;;;18.44;41.13
15670;BME280;18524;45.190;5.732;2024-03-02T12:47:23;97563.75;;;19.00;38.85
15670;BME280;18524;45.190;5.732;2024-03-02T12:52:13;97582.56;;;19.49;38.36
15670;BME280;18524;45.190;5.732;2024-03-02T12:57:04;97576.22;;;19.75;34.25
15670;BME280;18524;45.190;5.732;2024-03-02T13:01:56;97586.91;;;19.68;34.11
15670;BME280;18524;45.190;5.732;2024-03-02T13:06:48;97585.94;;;19.62;36.79
15670;BME280;18524;45.190;5.732;2024-03-02T13:11:38;97580.72;;;19.49;35.41
15670;BME280;18524;45.190;5.732;2024-03-02T13:16:29;97580.94;;;19.48;36.64
15670;BME280;18524;45.190;5.732;2024-03-02T13:21:19;97588.16;;;19.41;35.47
15670;BME280;18524;45.190;5.732;2024-03-02T13:26:09;97598.50;;;19.24;35.28
15670;BME280;18524;45.190;5.732;2024-03-02T13:31:02;97587.09;;;18.92;35.57
15670;BME280;18524;45.190;5.732;2024-03-02T13:35:53;97604.63;;;18.68;36.03
15670;BME280;18524;45.190;5.732;2024-03-02T13:40:43;97603.81;;;18.54;36.15
15670;BME280;18524;45.190;5.732;2024-03-02T13:45:33;97617.56;;;18.44;37.96
15670;BME280;18524;45.190;5.732;2024-03-02T13:50:24;97600.09;;;18.24;37.39
15670;BME280;18524;45.190;5.732;2024-03-02T13:55:14;97598.50;;;18.09;38.04
15670;BME280;18524;45.190;5.732;2024-03-02T14:00:05;97589.97;;;17.94;37.92
15670;BME280;18524;45.190;5.732;2024-03-02T14:05:00;97611.00;;;17.96;39.03
15670;BME280;18524;45.190;5.732;2024-03-02T14:09:50;97607.75;;;17.80;38.26
15670;BME280;18524;45.190;5.732;2024-03-02T14:14:41;97599.56;;;17.82;38.56
15670;BME280;18524;45.190;5.732;2024-03-02T14:19:32;97593.69;;;17.87;40.10
15670;BME280;18524;45.190;5.732;2024-03-02T14:24:22;97561.06;;;17.73;39.27
15670;BME280;18524;45.190;5.732;2024-03-02T14:29:15;97544.72;;;17.76;39.58
15670;BME280;18524;45.190;5.732;2024-03-02T14:34:06;97528.41;;;17.66;39.31
15670;BME280;18524;45.190;5.732;2024-03-02T14:38:56;97519.88;;;17.70;39.61
15670;BME280;18524;45.190;5.732;2024-03-02T14:43:47;97529.25;;;17.60;39.66
15670;BME280;18524;45.190;5.732;2024-03-02T14:48:38;97544.75;;;17.69;40.49
15670;BME280;18524;45.190;5.732;2024-03-02T14:53:29;97530.66;;;17.62;39.66
15670;BME280;18524;45.190;5.732;2024-03-02T14:58:19;97534.53;;;17.73;40.49
15670;BME280;18524;45.190;5.732;2024-03-02T15:03:09;97514.56;;;17.57;40.04
15670;BME280;18524;45.190;5.732;2024-03-02T15:08:01;97505.22;;;17.41;40.48
15670;BME280;18524;45.190;5.732;2024-03-02T15:12:54;97503.00;;;17.32;40.61
15670;BME280;18524;45.190;5.732;2024-03-02T15:17:44;97503.41;;;17.29;41.19
15670;BME280;18524;45.190;5.732;2024-03-02T15:22:35;97486.13;;;17.19;42.40
15670;BME280;18524;45.190;5.732;2024-03-02T15:27:25;97498.34;;;17.07;43.17
15670;BME280;18524;45.190;5.732;2024-03-02T15:32:17;97525.66;;;16.88;42.09
15670;BME280;18524;45.190;5.732;2024-03-02T15:37:07;97515.47;;;16.78;44.10
15670;BME280;18524;45.190;5.732;2024-03-02T15:41:58;97505.88;;;16.71;45.04
15670;BME280;18524;45.190;5.732;2024-03-02T15:46:48;97496.06;;;16.65;45.39
15670;BME280;18524;45.190;5.732;2024-03-02T15:51:39;97511.53;;;16.54;46.45
15670;BME280;18524;45.190;5.732;2024-03-02T15:56:33;97482.63;;;16.40;45.23
15670;BME280;18524;45.190;5.732;2024-03-02T16:01:24;97489.75;;;16.46;45.60
15670;BME280;18524;45.190;5.732;2024-03-02T16:06:15;97477.91;;;16.35;46.27
15670;BME280;18524;45.190;5.732;2024-03-02T16:11:05;97469.97;;;16.35;46.85
15670;BME280;18524;45.190;5.732;2024-03-02T16:15:56;97467.75;;;16.39;47.28
15670;BME280;18524;45.190;5.732;2024-03-02T16:20:46;97449.81;;;16.34;47.42
15670;BME280;18524;45.190;5.732;2024-03-02T16:25:37;97455.50;;;16.31;48.09
15670;BME280;18524;45.190;5.732;2024-03-02T16:30:27;97450.22;;;16.31;48.19
15670;BME280;18524;45.190;5.732;2024-03-02T16:35:17;97443.50;;;16.35;47.60
15670;BME280;18524;45.190;5.732;2024-03-02T16:40:08;97444.91;;;16.18;47.43
15670;BME280;18524;45.190;5.732;2024-03-02T16:44:59;97444.09;;;16.11;47.91
15670;BME280;18524;45.190;5.732;2024-03-02T16:49:49;97444.09;;;16.11;47.83
15670;BME280;18524;45.190;5.732;2024-03-02T16:54:40;97439.81;;;16.10;46.73
15670;BME280;18524;45.190;5.732;2024-03-02T16:59:30;97442.03;;;16.00;47.16
15670;BME280;18524;45.190;5.732;2024-03-02T17:04:20;97463.97;;;15.93;46.46
15670;BME280;18524;45.190;5.732;2024-03-02T17:09:12;97450.53;;;15.95;45.00
15670;BME280;18524;45.190;5.732;2024-03-02T17:14:02;97440.13;;;15.80;46.30
15670;BME280;18524;45.190;5.732;2024-03-02T17:18:53;97440.34;;;15.85;45.64
15670;BME280;18524;45.190;5.732;2024-03-02T17:23:43;97435.22;;;15.71;45.36
15670;BME280;18524;45.190;5.732;2024-03-02T17:28:34;97443.75;;;15.66;43.90
15670;BME280;18524;45.190;5.732;2024-03-02T17:33:24;97441.53;;;15.70;44.70
15670;BME280;18524;45.190;5.732;2024-03-02T17:38:15;97416.47;;;15.59;44.25
15670;BME280;18524;45.190;5.732;2024-03-02T17:43:05;97436.78;;;15.58;43.41
15670;BME280;18524;45.190;5.732;2024-03-02T17:47:56;97404.88;;;15.60;42.96
15670;BME280;18524;45.190;5.732;2024-03-02T17:52:46;97418.19;;;15.39;43.18
15670;BME280;18524;45.190;5.732;2024-03-02T17:57:37;97421.56;;;15.60;40.87
15670;BME280;18524;45.190;5.732;2024-03-02T18:02:28;97399.59;;;15.60;41.06
15670;BME280;18524;45.190;5.732;2024-03-02T18:07:20;97427.28;;;15.64;41.08
15670;BME280;18524;45.190;5.732;2024-03-02T18:12:10;97423.22;;;15.61;41.29
15670;BME280;18524;45.190;5.732;2024-03-02T18:17:00;97429.44;;;15.54;41.50
15670;BME280;18524;45.190;5.732;2024-03-02T18:21:51;97416.63;;;15.51;40.46
15670;BME280;18524;45.190;5.732;2024-03-02T18:26:41;97410.50;;;15.50;40.69
15670;BME280;18524;45.190;5.732;2024-03-02T18:31:31;97401.56;;;15.51;40.52
15670;BME280;18524;45.190;5.732;2024-03-02T18:36:22;97384.94;;;15.57;40.64
15670;BME280;18524;45.190;5.732;2024-03-02T18:41:12;97392.53;;;15.67;39.49
15670;BME280;18524;45.190;5.732;2024-03-02T18:46:06;97387.41;;;15.59;38.75
15670;BME280;18524;45.190;5.732;2024-03-02T18:50:56;97365.09;;;15.68;38.66
15670;BME280;18524;45.190;5.732;2024-03-02T18:55:47;97387.66;;;15.64;39.87
15670;BME280;18524;45.190;5.732;2024-03-02T19:00:37;97383.75;;;15.60;41.28
15670;BME280;18524;45.190;5.732;2024-03-02T19:05:28;97377.59;;;15.53;42.05
15670;BME280;18524;45.190;5.732;2024-03-02T19:10:18;97376.75;;;15.39;41.95
15670;BME280;18524;45.190;5.732;2024-03-02T19:15:09;97373.00;;;15.20;42.73
15670;BME280;18524;45.190;5.732;2024-03-02T19:20:01;97390.28;;;15.23;42.97
15670;BME280;18524;45.190;5.732;2024-03-02T19:24:52;97377.81;;;15.10;42.54
15670;BME280;18524;45.190;5.732;2024-03-02T19:29:43;97376.84;;;15.18;43.27
15670;BME280;18524;45.190;5.732;2024-03-02T19:34:35;97394.28;;;15.12;42.09
15670;BME280;18524;45.190;5.732;2024-03-02T19:39:25;97373.16;;;15.12;41.26
15670;BME280;18524;45.190;5.732;2024-03-02T19:44:20;97369.75;;;15.18;41.91
15670;BME280;18524;45.190;5.732;2024-03-02T19:49:13;97394.31;;;15.19;41.34
15670;BME280;18524;45.190;5.732;2024-03-02T19:54:05;97388.81;;;15.14;41.39
15670;BME280;18524;45.190;5.732;2024-03-02T19:58:55;97400.97;;;15.08;41.00
15670;BME280;18524;45.190;5.732;2024-03-02T20:03:46;97377.22;;;15.15;40.28
15670;BME280;18524;45.190;5.732;2024-03-02T20:08:39;97372.94;;;15.07;40.70
15670;BME280;18524;45.190;5.732;2024-03-02T20:13:30;97377.59;;;15.05;41.40
15670;BME280;18524;45.190;5.732;2024-03-02T20:18:20;97370.53;;;15.12;40.70
15670;BME280;18524;45.190;5.732;2024-03-02T20:23:11;97361.97;;;15.10;39.87
15670;BME280;18524;45.190;5.732;2024-03-02T20:28:01;97354.69;;;15.12;39.34
15670;BME280;18524;45.190;5.732;2024-03-02T20:32:51;97363.78;;;15.03;39.91
15670;BME280;18524;45.190;5.732;2024-03-02T20:37:42;97346.75;;;15.12;40.27
15670;BME280;18524;45.190;5.732;2024-03-02T20:42:32;97345.72;;;15.07;39.36
15670;BME280;18524;45.190;5.732;2024-03-02T20:47:22;97342.06;;;15.08;40.28
15670;BME280;18524;45.190;5.732;2024-03-02T20:52:13;97362.34;;;15.00;40.66
15670;BME280;18524;45.190;5.732;2024-03-02T20:57:03;97346.75;;;15.06;40.50
15670;BME280;18524;45.190;5.732;2024-03-02T21:01:56;97322.38;;;15.04;40.67
15670;BME280;18524;45.190;5.732;2024-03-02T21:06:46;97314.84;;;15.00;40.44
15670;BME280;18524;45.190;5.732;2024-03-02T21:11:37;97301.44;;;15.02;40.74
15670;BME280;18524;45.190;5.732;2024-03-02T21:16:28;97307.72;;;15.01;41.07
15670;BME280;18524;45.190;5.732;2024-03-02T21:21:18;97294.53;;;15.01;40.96
15670;BME280;18524;45.190;5.732;2024-03-02T21:26:08;97314.25;;;15.12;41.01
15670;BME280;18524;45.190;5.732;2024-03-02T21:30:59;97315.69;;;15.14;40.33
15670;BME280;18524;45.190;5.732;2024-03-02T21:35:49;97297.63;;;15.18;39.80
15670;BME280;18524;45.190;5.732;2024-03-02T21:40:39;97322.38;;;15.10;41.13
15670;BME280;18524;45.190;5.732;2024-03-02T21:45:30;97341.09;;;15.15;40.12
15670;BME280;18524;45.190;5.732;2024-03-02T21:50:20;97313.63;;;15.03;41.04
15670;BME280;18524;45.190;5.732;2024-03-02T21:55:11;97300.88;;;15.13;40.77
15670;BME280;18524;45.190;5.732;2024-03-02T22:00:01;97309.41;;;15.15;41.55
15670;BME280;18524;45.190;5.732;2024-03-02T22:04:53;97303.50;;;15.13;41.79
15670;BME280;18524;45.190;5.732;2024-03-02T22:09:43;97304.69;;;15.04;42.42
15670;BME280;18524;45.190;5.732;2024-03-02T22:14:34;97308.53;;;15.01;42.84
15670;BME280;18524;45.190;5.732;2024-03-02T22:19:24;97297.75;;;14.96;42.76
15670;BME280;18524;45.190;5.732;2024-03-02T22:24:14;97301.44;;;15.02;43.64
15670;BME280;18524;45.190;5.732;2024-03-02T22:29:05;97296.13;;;14.95;43.50
15670;BME280;18524;45.190;5.732;2024-03-02T22:33:55;97309.34;;;14.95;44.46
15670;BME280;18524;45.190;5.732;2024-03-02T22:38:46;97314.19;;;14.92;44.81
15670;BME280;18524;45.190;5.732;2024-03-02T22:43:36;97307.84;;;14.86;44.88
15670;BME280;18524;45.190;5.732;2024-03-02T22:48:27;97327.91;;;14.81;45.62
15670;BME280;18524;45.190;5.732;2024-03-02T22:53:17;97322.88;;;14.86;46.17
15670;BME280;18524;45.190;5.732;2024-03-02T22:58:07;97334.78;;;14.75;46.72
15670;BME280;18524;45.190;5.732;2024-03-02T23:02:58;97340.81;;;14.62;46.80
15670;BME280;18524;45.190;5.732;2024-03-02T23:07:48;97336.53;;;14.61;47.44
15670;BME280;18524;45.190;5.732;2024-03-02T23:12:38;97332.09;;;14.62;48.19
15670;BME280;18524;45.190;5.732;2024-03-02T23:17:29;97330.25;;;14.62;48.58
15670;BME280;18524;45.190;5.732;2024-03-02T23:22:20;97340.34;;;14.52;49.37
15670;BME280;18524;45.190;5.732;2024-03-02T23:27:12;97334.94;;;14.39;49.80
15670;BME280;18524;45.190;5.732;2024-03-02T23:32:03;97326.41;;;14.37;49.91
15670;BME280;18524;45.190;5.732;2024-03-02T23:36:53;97329.03;;;14.37;50.46
15670;BME280;18524;45.190;5.732;2024-03-02T23:41:44;97344.66;;;14.38;50.86
15670;BME280;18524;45.190;5.732;2024-03-02T23:46:35;97334.94;;;14.39;50.91
15670;BME280;18524;45.190;5.732;2024-03-02T23:51:25;97330.66;;;14.38;51.57
15670;BME280;18524;45.190;5.732;2024-03-02T23:56:15;97337.72;;;14.31;51.69
